createdAt,value
2018-06-01T00:01:18.598Z,22.60
2018-06-01T00:03:49.463Z,22.50
2018-06-01T00:06:19.865Z,22.50
2018-06-01T00:08:50.536Z,22.50
2018-06-01T00:11:20.895Z,22.60
2018-06-01T00:13:51.745Z,22.50
2018-06-01T00:16:22.059Z,22.40
2018-06-01T00:18:52.277Z,22.40
2018-06-01T00:21:22.762Z,22.50
2018-06-01T00:23:52.847Z,22.40
2018-06-01T00:26:23.682Z,22.40
2018-06-01T00:28:54.613Z,22.50
2018-06-01T00:31:25.572Z,22.50
2018-06-01T00:33:56.134Z,22.40
2018-06-01T00:36:26.378Z,22.40
2018-06-01T00:38:57.137Z,22.40
2018-06-01T00:41:28.065Z,22.50
2018-06-01T00:43:58.261Z,22.40
2018-06-01T00:46:28.802Z,22.50
2018-06-01T00:48:59.031Z,22.50
2018-06-01T00:51:29.189Z,22.50
2018-06-01T00:53:59.727Z,22.50
2018-06-01T00:56:29.998Z,22.30
2018-06-01T00:59:00.261Z,22.20
2018-06-01T01:01:30.789Z,22.30
2018-06-01T01:04:00.933Z,22.40
2018-06-01T01:06:31.383Z,22.40
2018-06-01T01:09:01.927Z,22.40
2018-06-01T01:11:32.256Z,22.40
2018-06-01T01:14:02.414Z,22.40
2018-06-01T01:16:33.074Z,22.30
2018-06-01T01:19:03.201Z,22.10
2018-06-01T01:21:33.677Z,22.10
2018-06-01T01:24:05.014Z,22.30
2018-06-01T01:26:35.319Z,22.30
2018-06-01T01:29:08.645Z,22.30
2018-06-01T01:31:43.458Z,22.20
2018-06-01T01:34:19.823Z,22.20
2018-06-01T01:36:50.387Z,22.30
2018-06-01T01:39:20.657Z,22.30
2018-06-01T01:41:50.850Z,22.30
2018-06-01T01:44:21.445Z,22.40
2018-06-01T01:46:52.476Z,22.30
2018-06-01T01:49:22.656Z,22.30
2018-06-01T01:51:53.151Z,22.30
2018-06-01T01:54:24.056Z,22.10
2018-06-01T01:56:54.236Z,22.10
2018-06-01T01:59:24.705Z,22.20
2018-06-01T02:01:54.914Z,22.20
2018-06-01T02:04:25.154Z,22.30
2018-06-01T02:06:55.308Z,20.90
2018-06-01T02:09:25.516Z,22.10
2018-06-01T02:11:56.745Z,22.10
2018-06-01T02:14:27.015Z,22.10
2018-06-01T02:16:57.216Z,22.20
2018-06-01T02:19:28.609Z,22.30
2018-06-01T02:21:58.710Z,22.30
2018-06-01T02:24:28.914Z,22.20
2018-06-01T02:26:59.391Z,22.00
2018-06-01T02:29:29.536Z,22.40
2018-06-01T02:32:00.439Z,21.60
2018-06-01T02:34:31.033Z,21.60
2018-06-01T02:37:01.257Z,21.80
2018-06-01T02:39:31.551Z,21.80
2018-06-01T02:42:02.700Z,22.00
2018-06-01T02:44:32.906Z,22.00
2018-06-01T02:47:03.113Z,22.10
2018-06-01T02:49:33.697Z,22.10
2018-06-01T02:52:04.051Z,21.80
2018-06-01T02:54:34.378Z,20.80
2018-06-01T02:57:04.521Z,20.70
2018-06-01T02:59:34.664Z,20.60
2018-06-01T03:02:06.128Z,19.90
2018-06-01T03:04:37.012Z,19.40
2018-06-01T03:07:13.244Z,19.30
2018-06-01T03:09:43.372Z,19.10
2018-06-01T03:12:15.213Z,18.80
2018-06-01T03:14:45.704Z,19.00
2018-06-01T03:17:16.259Z,19.10
2018-06-01T03:19:47.483Z,19.00
2018-06-01T03:22:18.021Z,19.00
2018-06-01T03:24:48.165Z,19.00
2018-06-01T03:27:19.264Z,18.30
2018-06-01T03:29:49.916Z,18.30
2018-06-01T03:32:20.787Z,16.30
2018-06-01T03:34:51.263Z,17.20
2018-06-01T03:37:21.898Z,17.30
2018-06-01T03:39:52.052Z,17.40
2018-06-01T03:42:23.166Z,16.80
2018-06-01T03:44:53.810Z,16.80
2018-06-01T03:47:24.499Z,17.10
2018-06-01T03:49:54.872Z,17.20
2018-06-01T03:52:26.169Z,17.10
2018-06-01T03:54:56.322Z,17.10
2018-06-01T03:57:26.453Z,17.40
2018-06-01T03:59:57.120Z,17.70
2018-06-01T04:02:27.144Z,18.10
2018-06-01T04:04:57.201Z,18.30
2018-06-01T04:07:27.790Z,18.10
2018-06-01T04:09:57.886Z,17.60
2018-06-01T04:12:28.835Z,17.70
2018-06-01T04:15:00.055Z,18.00
2018-06-01T04:17:30.375Z,18.00
2018-06-01T04:20:00.575Z,18.40
2018-06-01T04:22:31.153Z,18.50
2018-06-01T04:25:03.921Z,19.10
2018-06-01T04:27:34.345Z,19.10
2018-06-01T04:30:05.055Z,19.40
2018-06-01T04:32:35.353Z,19.50
2018-06-01T04:35:05.690Z,19.00
2018-06-01T04:37:39.942Z,19.00
2018-06-01T04:40:10.216Z,19.30
2018-06-01T04:42:48.336Z,19.30
2018-06-01T04:45:18.506Z,19.50
2018-06-01T04:47:49.514Z,19.10
2018-06-01T04:50:19.930Z,19.80
2018-06-01T04:52:50.037Z,19.90
2018-06-01T04:55:20.325Z,19.90
2018-06-01T04:57:51.685Z,19.90
2018-06-01T05:00:21.940Z,19.90
2018-06-01T05:02:52.139Z,20.10
2018-06-01T05:05:22.706Z,20.10
2018-06-01T05:07:52.873Z,20.10
2018-06-01T05:10:23.927Z,20.20
2018-06-01T05:12:54.391Z,20.20
2018-06-01T05:18:57.741Z,20.40
2018-06-01T05:21:30.045Z,20.60
2018-06-01T05:24:00.253Z,20.60
2018-06-01T05:26:30.486Z,20.70
2018-06-01T05:29:01.738Z,20.90
2018-06-01T05:31:33.488Z,20.80
2018-06-01T05:34:03.649Z,21.00
2018-06-01T05:36:34.043Z,21.10
2018-06-01T05:39:04.829Z,21.20
2018-06-01T05:41:36.814Z,21.40
2018-06-01T05:44:07.891Z,21.40
2018-06-01T05:46:38.169Z,21.40
2018-06-01T05:49:09.247Z,21.30
2018-06-01T05:51:45.304Z,21.30
2018-06-01T05:54:25.423Z,21.30
2018-06-01T05:56:59.616Z,21.30
2018-06-01T05:59:30.507Z,21.30
2018-06-01T06:02:01.096Z,21.10
2018-06-01T06:04:31.940Z,21.10
2018-06-01T06:07:02.338Z,21.10
2018-06-01T06:09:33.450Z,21.10
2018-06-01T06:12:10.144Z,21.10
2018-06-01T06:14:45.672Z,21.00
2018-06-01T06:17:23.374Z,21.00
2018-06-01T06:19:54.652Z,21.00
2018-06-01T06:22:35.260Z,21.10
2018-06-01T06:25:12.666Z,21.10
2018-06-01T06:27:48.002Z,21.10
2018-06-01T06:30:26.544Z,21.10
2018-06-01T06:33:06.173Z,21.10
2018-06-01T06:35:43.000Z,20.90
2018-06-01T06:38:19.705Z,21.00
2018-06-01T06:40:56.195Z,20.50
2018-06-01T06:43:33.683Z,20.40
2018-06-01T06:46:11.508Z,20.70
2018-06-01T06:48:49.030Z,20.30
2018-06-01T06:51:19.164Z,20.10
2018-06-01T06:53:57.091Z,20.90
2018-06-01T06:56:29.497Z,21.20
2018-06-01T06:59:00.885Z,21.10
2018-06-01T07:01:33.517Z,21.40
2018-06-01T07:04:09.226Z,20.30
2018-06-01T07:06:42.314Z,21.90
2018-06-01T07:09:13.868Z,22.10
2018-06-01T07:11:46.901Z,22.20
2018-06-01T07:14:17.602Z,22.20
2018-06-01T07:16:50.838Z,22.50
2018-06-01T07:19:21.916Z,22.50
2018-06-01T07:21:57.946Z,22.90
2018-06-01T07:24:32.726Z,22.90
2018-06-01T07:27:32.803Z,23.20
2018-06-01T07:30:04.808Z,23.20
2018-06-01T07:32:38.958Z,23.10
2018-06-01T07:35:10.115Z,23.10
2018-06-01T07:37:45.705Z,22.90
2018-06-01T07:40:20.554Z,22.50
2018-06-01T07:42:55.136Z,22.50
2018-06-01T07:45:29.336Z,22.50
2018-06-01T07:48:02.404Z,22.30
2018-06-01T07:50:35.985Z,23.00
2018-06-01T07:53:07.242Z,22.10
2018-06-01T07:55:49.362Z,22.00
2018-06-01T07:58:25.263Z,22.10
2018-06-01T08:00:57.661Z,21.90
2018-06-01T08:03:29.358Z,21.90
2018-06-01T08:06:00.926Z,21.80
2018-06-01T08:08:42.263Z,21.80
2018-06-01T08:11:19.038Z,21.10
2018-06-01T08:13:51.401Z,21.80
2018-06-01T08:16:29.151Z,21.80
2018-06-01T08:19:01.080Z,21.70
2018-06-01T08:21:32.879Z,21.60
2018-06-01T08:24:04.927Z,21.50
2018-06-01T08:26:39.925Z,20.90
2018-06-01T08:29:18.716Z,20.50
2018-06-01T08:31:52.442Z,20.70
2018-06-01T08:34:38.287Z,20.60
2018-06-01T08:37:10.226Z,20.90
2018-06-01T08:39:42.798Z,20.90
2018-06-01T08:42:13.463Z,21.00
2018-06-01T08:44:52.721Z,21.10
2018-06-01T08:47:29.226Z,20.70
2018-06-01T08:50:04.048Z,20.70
2018-06-01T08:52:34.821Z,19.70
2018-06-01T08:55:05.657Z,20.80
2018-06-01T08:57:36.085Z,20.80
2018-06-01T09:00:08.008Z,20.90
2018-06-01T09:02:44.476Z,21.60
2018-06-01T09:05:21.809Z,20.90
2018-06-01T09:07:53.346Z,21.00
2018-06-01T09:10:24.081Z,21.20
2018-06-01T09:12:56.427Z,21.00
2018-06-01T09:15:29.140Z,21.20
2018-06-01T09:18:16.978Z,21.50
2018-06-01T09:20:47.730Z,21.20
2018-06-01T09:23:23.620Z,21.00
2018-06-01T09:26:00.292Z,20.80
2018-06-01T09:28:31.651Z,20.80
2018-06-01T09:31:02.377Z,20.70
2018-06-01T09:33:36.639Z,20.70
2018-06-01T09:36:10.636Z,20.90
2018-06-01T09:38:44.792Z,21.00
2018-06-01T09:41:17.051Z,21.10
2018-06-01T09:43:50.287Z,21.10
2018-06-01T09:46:24.086Z,21.20
2018-06-01T09:48:57.259Z,21.10
2018-06-01T09:51:32.468Z,21.30
2018-06-01T09:54:10.308Z,21.30
2018-06-01T09:56:44.820Z,21.30
2018-06-01T09:59:20.628Z,21.30
2018-06-01T10:01:56.380Z,21.20
2018-06-01T10:04:41.065Z,20.90
2018-06-01T10:07:19.005Z,21.10
2018-06-01T10:09:56.778Z,21.10
2018-06-01T10:12:29.842Z,21.30
2018-06-01T10:15:07.995Z,21.30
2018-06-01T10:17:40.637Z,21.60
2018-06-01T10:20:22.657Z,21.60
2018-06-01T11:09:41.421Z,21.90
2018-06-01T11:13:27.393Z,21.00
2018-06-01T11:16:03.947Z,20.40
2018-06-01T11:18:38.198Z,20.40
2018-06-01T11:25:31.020Z,20.00
2018-06-01T11:28:03.570Z,21.10
2018-06-01T11:30:36.326Z,21.00
2018-06-01T11:33:12.152Z,20.90
2018-06-01T11:35:47.611Z,22.30
2018-06-01T11:38:22.382Z,20.70
2018-06-01T11:53:27.176Z,19.80
2018-06-01T11:55:58.143Z,21.40
2018-06-01T11:58:29.460Z,21.40
2018-06-01T12:01:00.586Z,21.50
2018-06-01T12:03:32.829Z,21.40
2018-06-01T12:06:04.638Z,21.40
2018-06-01T12:08:36.469Z,22.10
2018-06-01T12:11:07.871Z,21.60
2018-06-01T12:13:38.838Z,21.60
2018-06-01T12:16:12.565Z,21.60
2018-06-01T12:18:46.884Z,21.60
2018-06-01T12:21:18.636Z,21.60
2018-06-01T12:23:50.365Z,21.60
2018-06-01T12:26:21.652Z,21.60
2018-06-01T12:28:53.056Z,21.70
2018-06-01T12:31:24.434Z,21.50
2018-06-01T12:33:57.269Z,21.50
2018-06-01T12:36:30.465Z,21.70
2018-06-01T12:39:04.121Z,21.70
2018-06-01T12:41:41.513Z,21.60
2018-06-01T12:44:19.289Z,21.60
2018-06-01T12:46:51.587Z,20.90
2018-06-01T12:49:25.225Z,20.30
2018-06-01T12:52:00.719Z,20.70
2018-06-01T12:54:31.630Z,20.60
2018-06-01T12:57:04.451Z,20.50
2018-06-01T12:59:36.429Z,20.40
2018-06-01T13:02:07.686Z,20.70
2018-06-01T13:04:42.900Z,21.00
2018-06-01T13:07:17.917Z,21.20
2018-06-01T13:09:52.386Z,21.30
2018-06-01T13:12:27.296Z,20.90
2018-06-01T13:15:07.859Z,21.10
2018-06-01T13:17:43.663Z,21.10
2018-06-01T13:20:29.843Z,21.20
2018-06-01T13:23:08.801Z,21.20
2018-06-01T13:25:46.352Z,21.20
2018-06-01T13:28:22.138Z,20.90
2018-06-01T13:30:56.004Z,21.30
2018-06-01T13:33:29.646Z,21.30
2018-06-01T13:36:04.220Z,21.40
2018-06-01T13:38:39.020Z,21.40
2018-06-01T13:41:15.583Z,21.10
2018-06-01T13:43:48.213Z,21.10
2018-06-01T13:46:22.757Z,20.50
2018-06-01T13:49:00.510Z,20.30
2018-06-01T13:51:34.300Z,20.30
2018-06-01T13:54:09.419Z,20.20
2018-06-01T13:56:44.646Z,20.10
2018-06-01T13:59:16.293Z,20.50
2018-06-01T14:01:50.005Z,19.90
2018-06-01T14:04:22.555Z,19.70
2018-06-01T14:06:55.519Z,20.40
2018-06-01T14:09:26.687Z,20.40
2018-06-01T14:11:59.952Z,20.20
2018-06-01T14:14:33.814Z,19.80
2018-06-01T14:17:14.561Z,19.70
2018-06-01T14:19:47.277Z,19.60
2018-06-01T14:22:18.743Z,19.20
2018-06-01T14:24:54.415Z,19.60
2018-06-01T14:27:26.154Z,19.60
2018-06-01T14:29:58.933Z,19.70
2018-06-01T14:32:31.472Z,19.70
2018-06-01T14:35:06.914Z,19.80
2018-06-01T14:37:40.097Z,19.80
2018-06-01T14:40:12.733Z,21.20
2018-06-01T14:42:48.950Z,20.30
2018-06-01T14:45:27.811Z,20.30
2018-06-01T14:48:02.661Z,20.10
2018-06-01T14:50:37.922Z,20.10
2018-06-01T14:53:11.625Z,19.80
2018-06-01T14:55:44.983Z,19.70
2018-06-01T14:58:16.940Z,19.80
2018-06-01T15:00:53.128Z,20.40
2018-06-01T15:03:26.951Z,20.40
2018-06-01T15:05:59.181Z,20.20
2018-06-01T15:08:36.034Z,20.20
2018-06-01T15:11:06.812Z,20.20
2018-06-01T15:13:39.048Z,19.90
2018-06-01T15:16:12.109Z,19.70
2018-06-01T15:18:44.105Z,20.30
2018-06-01T15:21:15.374Z,20.50
2018-06-01T15:23:50.557Z,20.50
2018-06-01T15:26:24.010Z,20.40
2018-06-01T15:28:55.932Z,20.40
2018-06-01T15:31:28.540Z,20.60
2018-06-01T15:34:02.568Z,20.60
2018-06-01T15:36:34.411Z,20.80
2018-06-01T15:39:08.150Z,20.80
2018-06-01T15:41:41.744Z,21.20
2018-06-01T15:44:12.837Z,21.20
2018-06-01T15:46:45.868Z,20.80
2018-06-01T15:49:18.262Z,20.80
2018-06-01T15:51:50.089Z,20.50
2018-06-01T15:54:22.225Z,20.50
2018-06-01T15:56:56.934Z,20.10
2018-06-01T15:59:29.923Z,20.10
2018-06-01T16:02:01.289Z,20.20
2018-06-01T16:04:33.429Z,20.00
2018-06-01T16:07:08.384Z,20.10
2018-06-01T16:09:42.703Z,20.00
2018-06-01T16:12:14.492Z,20.00
2018-06-01T16:14:47.706Z,21.10
2018-06-01T16:17:19.447Z,20.10
2018-06-01T16:19:54.608Z,20.20
2018-06-01T16:22:27.890Z,19.90
2018-06-01T16:25:01.171Z,19.90
2018-06-01T16:27:34.795Z,20.20
2018-06-01T16:30:08.004Z,20.70
2018-06-01T16:32:43.547Z,20.50
2018-06-01T16:35:17.156Z,20.70
2018-06-01T16:37:48.799Z,20.70
2018-06-01T16:40:20.302Z,20.80
2018-06-01T16:42:52.897Z,21.10
2018-06-01T16:45:29.081Z,21.20
2018-06-01T16:48:00.208Z,22.50
2018-06-01T16:50:32.590Z,21.00
2018-06-01T16:53:06.848Z,20.60
2018-06-01T16:55:41.331Z,20.40
2018-06-01T16:58:13.687Z,20.30
2018-06-01T17:00:47.840Z,20.30
2018-06-01T17:03:23.052Z,20.30
2018-06-01T17:05:57.530Z,20.20
2018-06-01T17:08:32.714Z,20.40
2018-06-01T17:11:05.129Z,20.40
2018-06-01T17:13:36.941Z,20.60
2018-06-01T17:16:30.252Z,20.90
2018-06-01T17:19:05.316Z,20.60
2018-06-01T17:21:41.901Z,20.40
2018-06-01T17:24:24.149Z,20.70
2018-06-01T17:26:56.896Z,20.90
2018-06-01T17:29:36.030Z,20.50
2018-06-01T17:32:08.536Z,20.70
2018-06-01T17:34:42.884Z,20.80
2018-06-01T17:37:19.500Z,21.00
2018-06-01T17:39:53.508Z,21.00
2018-06-01T17:42:28.780Z,20.60
2018-06-01T17:45:00.564Z,20.30
2018-06-01T17:47:34.672Z,20.60
2018-06-01T17:50:13.038Z,20.50
2018-06-01T17:52:45.434Z,20.50
2018-06-01T17:55:19.244Z,20.50
2018-06-01T17:57:53.791Z,21.00
2018-06-01T18:00:28.956Z,20.80
2018-06-01T18:03:02.678Z,20.70
2018-06-01T18:05:36.955Z,22.70
2018-06-01T18:08:09.939Z,20.90
2018-06-01T18:10:44.468Z,22.00
2018-06-01T18:13:16.237Z,22.60
2018-06-01T18:15:54.662Z,20.20
2018-06-01T18:18:26.626Z,20.40
2018-06-01T18:21:04.351Z,20.10
2018-06-01T18:23:37.552Z,19.80
2018-06-01T18:26:14.868Z,19.50
2018-06-01T18:28:53.302Z,19.20
2018-06-01T18:31:29.818Z,19.10
2018-06-01T18:34:02.934Z,19.40
2018-06-01T18:36:34.449Z,19.70
2018-06-01T18:39:07.439Z,21.50
2018-06-01T18:41:56.432Z,21.70
2018-06-01T18:44:30.699Z,20.80
2018-06-01T18:47:03.538Z,20.80
2018-06-01T18:49:35.601Z,20.90
2018-06-01T18:52:10.170Z,20.90
2018-06-01T18:54:45.571Z,20.80
2018-06-01T18:57:22.550Z,22.60
2018-06-01T18:59:55.524Z,20.90
2018-06-01T19:02:29.340Z,19.10
2018-06-01T19:05:02.435Z,20.70
2018-06-01T19:07:35.640Z,21.70
2018-06-01T19:10:08.424Z,20.80
2018-06-01T19:12:40.741Z,20.90
2018-06-01T19:15:15.010Z,20.10
2018-06-01T19:17:49.951Z,21.60
2018-06-01T19:20:25.889Z,21.00
2018-06-01T19:23:04.317Z,20.70
2018-06-01T19:25:37.077Z,20.60
2018-06-01T19:28:11.109Z,20.80
2018-06-01T19:30:45.204Z,21.00
2018-06-01T19:33:16.875Z,21.00
2018-06-01T19:35:48.483Z,21.00
2018-06-01T19:38:20.537Z,20.80
2018-06-01T19:40:51.953Z,20.80
2018-06-01T19:43:23.557Z,19.90
2018-06-01T19:45:55.852Z,20.90
2018-06-01T19:48:27.381Z,20.80
2018-06-01T19:51:02.041Z,20.80
2018-06-01T19:53:35.848Z,20.60
2018-06-01T19:56:08.076Z,20.60
2018-06-01T19:58:41.448Z,20.10
2018-06-01T20:01:14.491Z,19.80
2018-06-01T20:03:47.945Z,19.80
2018-06-01T20:06:20.010Z,19.90
2018-06-01T20:08:52.642Z,19.90
2018-06-01T20:11:26.988Z,20.00
2018-06-01T20:14:00.042Z,19.90
2018-06-01T20:16:33.845Z,19.80
2018-06-01T20:19:07.382Z,19.50
2018-06-01T20:21:41.382Z,19.50
2018-06-01T20:24:16.112Z,21.00
2018-06-01T20:26:48.267Z,19.30
2018-06-01T20:29:22.647Z,19.00
2018-06-01T20:31:55.441Z,19.00
2018-06-01T20:34:28.201Z,18.90
2018-06-01T20:37:03.312Z,19.00
2018-06-01T20:39:36.943Z,19.30
2018-06-01T20:42:08.782Z,19.40
2018-06-01T20:44:43.244Z,19.30
2018-06-01T20:47:18.084Z,20.50
2018-06-01T20:49:50.304Z,19.90
2018-06-01T20:52:27.172Z,20.00
2018-06-01T20:54:59.723Z,20.20
2018-06-01T20:57:36.964Z,20.30
2018-06-01T21:00:13.193Z,20.30
2018-06-01T21:02:44.533Z,20.30
2018-06-01T21:05:19.236Z,20.30
2018-06-01T21:07:52.096Z,20.00
2018-06-01T21:10:26.596Z,20.20
2018-06-01T21:12:58.335Z,20.30
2018-06-01T21:15:30.374Z,20.30
2018-06-01T21:18:04.731Z,20.20
2018-06-01T21:20:36.044Z,20.20
2018-06-01T21:23:10.746Z,20.20
2018-06-01T21:25:45.223Z,19.90
2018-06-01T21:28:19.337Z,19.80
2018-06-01T21:30:52.335Z,19.90
2018-06-01T21:33:28.117Z,19.80
2018-06-01T21:36:04.682Z,19.70
2018-06-01T21:38:38.540Z,19.70
2018-06-01T21:41:12.859Z,20.00
2018-06-01T21:44:06.677Z,20.10
2018-06-01T21:46:56.176Z,20.30
2018-06-01T21:49:29.571Z,19.60
2018-06-01T21:52:00.488Z,20.30
2018-06-01T21:54:32.136Z,20.40
2018-06-01T21:57:03.612Z,20.40
2018-06-01T21:59:38.332Z,20.40
2018-06-01T22:02:13.277Z,20.40
2018-06-01T22:04:44.954Z,20.40
2018-06-01T22:07:17.251Z,20.40
2018-06-01T22:09:49.101Z,20.30
2018-06-01T22:12:20.806Z,20.40
2018-06-01T22:14:53.004Z,20.20
2018-06-01T22:17:29.138Z,20.10
2018-06-01T22:19:59.866Z,20.10
2018-06-01T22:22:32.241Z,20.20
2018-06-01T22:25:05.176Z,21.20
2018-06-01T22:27:37.326Z,20.70
2018-06-01T22:30:13.039Z,20.00
2018-06-01T22:32:43.862Z,20.00
2018-06-01T22:35:16.192Z,20.00
2018-06-01T22:37:50.882Z,20.00
2018-06-01T22:40:24.090Z,20.00
2018-06-01T22:42:56.460Z,20.00
2018-06-01T22:45:29.499Z,19.90
2018-06-01T22:48:00.698Z,19.80
2018-06-01T22:50:32.702Z,19.70
2018-06-01T22:53:04.472Z,19.70
2018-06-01T22:55:36.489Z,19.70
2018-06-01T22:58:07.816Z,19.70
2018-06-01T23:00:41.657Z,19.70
2018-06-01T23:03:14.717Z,19.70
2018-06-01T23:05:45.746Z,19.20
2018-06-01T23:08:20.529Z,20.20
2018-06-01T23:10:51.940Z,19.90
2018-06-01T23:13:23.185Z,19.80
2018-06-01T23:15:55.012Z,19.90
2018-06-01T23:18:27.338Z,19.80
2018-06-01T23:21:00.177Z,19.90
2018-06-01T23:23:33.154Z,20.00
2018-06-01T23:26:04.259Z,20.00
2018-06-01T23:28:36.685Z,20.00
2018-06-01T23:31:09.001Z,20.00
2018-06-01T23:33:41.493Z,19.80
2018-06-01T23:36:13.786Z,19.90
2018-06-01T23:38:44.712Z,19.90
2018-06-01T23:41:16.820Z,20.00
2018-06-01T23:43:48.101Z,20.00
2018-06-01T23:46:19.652Z,19.70
2018-06-01T23:48:51.377Z,19.70
2018-06-01T23:51:24.272Z,19.90
2018-06-01T23:54:00.948Z,19.90
2018-06-01T23:56:32.090Z,19.70
2018-06-01T23:59:03.776Z,19.70
